sensor_id;sensor_type;location;lat;lon;timestamp;P1;durP1;ratioP1;P2;durP2;ratioP2
38937;SDS011;24727;51.974;20.868;2023-10-19T00:00:45;31.58;;;17.83;;
38937;SDS011;24727;51.974;20.868;2023-10-19T00:03:16;37.42;;;20.17;;
38937;SDS011;24727;51.974;20.868;2023-10-19T00:05:45;34.55;;;18.15;;
38937;SDS011;24727;51.974;20.868;2023-10-19T00:08:16;38.03;;;19.48;;
38937;SDS011;24727;51.974;20.868;2023-10-19T00:10:47;32.87;;;17.83;;
38937;SDS011;24727;51.974;20.868;2023-10-19T00:13:36;35.17;;;19.02;;
38937;SDS011;24727;51.974;20.868;2023-10-19T00:16:04;33.92;;;19.30;;
38937;SDS011;24727;51.974;20.868;2023-10-19T00:18:45;33.85;;;17.42;;
38937;SDS011;24727;51.974;20.868;2023-10-19T00:21:14;29.13;;;16.60;;
38937;SDS011;24727;51.974;20.868;2023-10-19T00:23:44;33.38;;;18.80;;
38937;SDS011;24727;51.974;20.868;2023-10-19T00:26:13;33.53;;;19.38;;
38937;SDS011;24727;51.974;20.868;2023-10-19T00:28:43;29.73;;;16.35;;
38937;SDS011;24727;51.974;20.868;2023-10-19T00:31:11;34.30;;;19.30;;
38937;SDS011;24727;51.974;20.868;2023-10-19T00:33:39;37.53;;;20.13;;
38937;SDS011;24727;51.974;20.868;2023-10-19T00:36:06;34.38;;;18.50;;
38937;SDS011;24727;51.974;20.868;2023-10-19T00:38:33;28.15;;;14.93;;
38937;SDS011;24727;51.974;20.868;2023-10-19T00:41:00;37.92;;;19.60;;
38937;SDS011;24727;51.974;20.868;2023-10-19T00:43:43;41.28;;;20.40;;
38937;SDS011;24727;51.974;20.868;2023-10-19T00:46:10;37.35;;;20.38;;
38937;SDS011;24727;51.974;20.868;2023-10-19T00:48:53;38.03;;;20.48;;
38937;SDS011;24727;51.974;20.868;2023-10-19T00:51:25;39.60;;;20.38;;
38937;SDS011;24727;51.974;20.868;2023-10-19T00:54:02;43.28;;;21.17;;
38937;SDS011;24727;51.974;20.868;2023-10-19T00:56:37;40.53;;;20.70;;
38937;SDS011;24727;51.974;20.868;2023-10-19T00:59:07;37.20;;;19.90;;
38937;SDS011;24727;51.974;20.868;2023-10-19T01:01:39;38.60;;;19.77;;
38937;SDS011;24727;51.974;20.868;2023-10-19T01:04:11;38.47;;;19.38;;
38937;SDS011;24727;51.974;20.868;2023-10-19T01:09:28;33.70;;;17.90;;
38937;SDS011;24727;51.974;20.868;2023-10-19T01:11:54;37.72;;;18.70;;
38937;SDS011;24727;51.974;20.868;2023-10-19T01:14:20;35.47;;;19.13;;
38937;SDS011;24727;51.974;20.868;2023-10-19T01:16:48;35.45;;;18.88;;
38937;SDS011;24727;51.974;20.868;2023-10-19T01:19:22;35.22;;;18.92;;
38937;SDS011;24727;51.974;20.868;2023-10-19T01:21:49;31.52;;;17.63;;
38937;SDS011;24727;51.974;20.868;2023-10-19T01:24:24;34.42;;;19.30;;
38937;SDS011;24727;51.974;20.868;2023-10-19T01:27:27;36.03;;;19.08;;
38937;SDS011;24727;51.974;20.868;2023-10-19T01:29:54;37.53;;;19.33;;
38937;SDS011;24727;51.974;20.868;2023-10-19T01:32:28;35.45;;;19.45;;
38937;SDS011;24727;51.974;20.868;2023-10-19T01:35:04;33.70;;;18.40;;
38937;SDS011;24727;51.974;20.868;2023-10-19T01:37:34;39.88;;;19.63;;
38937;SDS011;24727;51.974;20.868;2023-10-19T01:40:05;39.72;;;21.65;;
38937;SDS011;24727;51.974;20.868;2023-10-19T01:42:40;38.92;;;22.58;;
38937;SDS011;24727;51.974;20.868;2023-10-19T01:45:11;37.83;;;20.15;;
38937;SDS011;24727;51.974;20.868;2023-10-19T01:47:40;33.92;;;19.75;;
38937;SDS011;24727;51.974;20.868;2023-10-19T01:50:14;33.92;;;18.80;;
38937;SDS011;24727;51.974;20.868;2023-10-19T01:52:45;40.88;;;20.40;;
38937;SDS011;24727;51.974;20.868;2023-10-19T01:55:11;38.80;;;19.25;;
38937;SDS011;24727;51.974;20.868;2023-10-19T01:57:37;39.58;;;20.42;;
38937;SDS011;24727;51.974;20.868;2023-10-19T02:00:05;36.90;;;18.95;;
38937;SDS011;24727;51.974;20.868;2023-10-19T02:02:36;36.03;;;18.55;;
38937;SDS011;24727;51.974;20.868;2023-10-19T02:05:02;38.60;;;19.35;;
38937;SDS011;24727;51.974;20.868;2023-10-19T02:07:34;42.15;;;22.20;;
38937;SDS011;24727;51.974;20.868;2023-10-19T02:10:00;41.83;;;21.10;;
38937;SDS011;24727;51.974;20.868;2023-10-19T02:12:26;39.47;;;20.05;;
38937;SDS011;24727;51.974;20.868;2023-10-19T02:14:54;42.17;;;21.40;;
38937;SDS011;24727;51.974;20.868;2023-10-19T02:17:21;43.10;;;22.30;;
38937;SDS011;24727;51.974;20.868;2023-10-19T02:19:48;38.72;;;21.38;;
38937;SDS011;24727;51.974;20.868;2023-10-19T02:22:15;38.85;;;20.23;;
38937;SDS011;24727;51.974;20.868;2023-10-19T02:24:43;35.60;;;19.50;;
38937;SDS011;24727;51.974;20.868;2023-10-19T02:27:10;38.47;;;20.05;;
38937;SDS011;24727;51.974;20.868;2023-10-19T02:29:36;38.97;;;19.13;;
38937;SDS011;24727;51.974;20.868;2023-10-19T02:32:03;37.30;;;21.05;;
38937;SDS011;24727;51.974;20.868;2023-10-19T02:34:31;36.97;;;20.52;;
38937;SDS011;24727;51.974;20.868;2023-10-19T02:36:57;43.53;;;22.40;;
38937;SDS011;24727;51.974;20.868;2023-10-19T02:39:23;44.25;;;21.98;;
38937;SDS011;24727;51.974;20.868;2023-10-19T02:41:53;45.17;;;23.13;;
38937;SDS011;24727;51.974;20.868;2023-10-19T02:44:26;43.78;;;22.45;;
38937;SDS011;24727;51.974;20.868;2023-10-19T02:46:53;44.42;;;23.83;;
38937;SDS011;24727;51.974;20.868;2023-10-19T02:49:32;42.53;;;22.33;;
38937;SDS011;24727;51.974;20.868;2023-10-19T02:52:04;42.67;;;23.05;;
38937;SDS011;24727;51.974;20.868;2023-10-19T02:54:30;38.15;;;19.42;;
38937;SDS011;24727;51.974;20.868;2023-10-19T02:57:00;42.97;;;22.45;;
38937;SDS011;24727;51.974;20.868;2023-10-19T02:59:27;42.22;;;22.63;;
38937;SDS011;24727;51.974;20.868;2023-10-19T03:01:55;44.92;;;21.95;;
38937;SDS011;24727;51.974;20.868;2023-10-19T03:06:54;48.67;;;22.95;;
38937;SDS011;24727;51.974;20.868;2023-10-19T03:09:23;45.00;;;22.20;;
38937;SDS011;24727;51.974;20.868;2023-10-19T03:14:36;42.97;;;22.55;;
38937;SDS011;24727;51.974;20.868;2023-10-19T03:17:11;46.67;;;24.05;;
38937;SDS011;24727;51.974;20.868;2023-10-19T03:19:38;54.53;;;25.60;;
38937;SDS011;24727;51.974;20.868;2023-10-19T03:22:04;44.45;;;23.13;;
38937;SDS011;24727;51.974;20.868;2023-10-19T03:24:31;52.38;;;24.75;;
38937;SDS011;24727;51.974;20.868;2023-10-19T03:27:02;45.92;;;22.23;;
38937;SDS011;24727;51.974;20.868;2023-10-19T03:29:41;50.13;;;24.48;;
38937;SDS011;24727;51.974;20.868;2023-10-19T03:32:12;55.85;;;26.30;;
38937;SDS011;24727;51.974;20.868;2023-10-19T03:34:38;44.70;;;24.50;;
38937;SDS011;24727;51.974;20.868;2023-10-19T03:37:08;47.25;;;24.73;;
38937;SDS011;24727;51.974;20.868;2023-10-19T03:39:37;42.08;;;21.35;;
38937;SDS011;24727;51.974;20.868;2023-10-19T03:42:04;52.40;;;28.27;;
38937;SDS011;24727;51.974;20.868;2023-10-19T03:44:39;58.08;;;28.63;;
38937;SDS011;24727;51.974;20.868;2023-10-19T03:47:16;50.40;;;26.10;;
38937;SDS011;24727;51.974;20.868;2023-10-19T03:49:54;52.28;;;24.83;;
38937;SDS011;24727;51.974;20.868;2023-10-19T03:52:21;43.53;;;22.90;;
38937;SDS011;24727;51.974;20.868;2023-10-19T03:54:48;41.40;;;22.58;;
38937;SDS011;24727;51.974;20.868;2023-10-19T03:57:14;43.03;;;22.30;;
38937;SDS011;24727;51.974;20.868;2023-10-19T03:59:46;54.53;;;25.85;;
38937;SDS011;24727;51.974;20.868;2023-10-19T04:02:17;55.78;;;25.92;;
38937;SDS011;24727;51.974;20.868;2023-10-19T04:04:49;54.85;;;27.90;;
38937;SDS011;24727;51.974;20.868;2023-10-19T04:07:18;49.42;;;24.80;;
38937;SDS011;24727;51.974;20.868;2023-10-19T04:09:51;59.88;;;29.45;;
38937;SDS011;24727;51.974;20.868;2023-10-19T04:12:24;53.70;;;26.95;;
38937;SDS011;24727;51.974;20.868;2023-10-19T04:14:54;60.03;;;29.45;;
38937;SDS011;24727;51.974;20.868;2023-10-19T04:17:21;55.58;;;28.95;;
38937;SDS011;24727;51.974;20.868;2023-10-19T04:19:49;52.97;;;26.88;;
38937;SDS011;24727;51.974;20.868;2023-10-19T04:22:21;59.63;;;28.50;;
38937;SDS011;24727;51.974;20.868;2023-10-19T04:24:48;56.95;;;29.52;;
38937;SDS011;24727;51.974;20.868;2023-10-19T04:27:16;57.13;;;28.85;;
38937;SDS011;24727;51.974;20.868;2023-10-19T04:29:42;53.70;;;27.98;;
38937;SDS011;24727;51.974;20.868;2023-10-19T04:32:10;57.88;;;29.30;;
38937;SDS011;24727;51.974;20.868;2023-10-19T04:34:39;57.00;;;28.95;;
38937;SDS011;24727;51.974;20.868;2023-10-19T04:37:05;56.85;;;30.00;;
38937;SDS011;24727;51.974;20.868;2023-10-19T04:39:32;63.15;;;31.17;;
38937;SDS011;24727;51.974;20.868;2023-10-19T04:42:00;51.60;;;28.10;;
38937;SDS011;24727;51.974;20.868;2023-10-19T04:44:26;53.67;;;27.30;;
38937;SDS011;24727;51.974;20.868;2023-10-19T04:46:52;54.53;;;28.17;;
38937;SDS011;24727;51.974;20.868;2023-10-19T04:49:18;58.22;;;30.17;;
38937;SDS011;24727;51.974;20.868;2023-10-19T04:51:45;55.35;;;27.48;;
38937;SDS011;24727;51.974;20.868;2023-10-19T04:54:11;51.75;;;27.27;;
38937;SDS011;24727;51.974;20.868;2023-10-19T04:56:37;55.63;;;27.52;;
38937;SDS011;24727;51.974;20.868;2023-10-19T04:59:03;53.65;;;27.17;;
38937;SDS011;24727;51.974;20.868;2023-10-19T05:01:29;57.97;;;28.02;;
38937;SDS011;24727;51.974;20.868;2023-10-19T05:03:59;58.28;;;28.77;;
38937;SDS011;24727;51.974;20.868;2023-10-19T05:06:26;56.30;;;29.08;;
38937;SDS011;24727;51.974;20.868;2023-10-19T05:08:53;49.15;;;26.20;;
38937;SDS011;24727;51.974;20.868;2023-10-19T05:11:20;51.85;;;27.00;;
38937;SDS011;24727;51.974;20.868;2023-10-19T05:13:46;54.33;;;27.20;;
38937;SDS011;24727;51.974;20.868;2023-10-19T05:16:12;51.95;;;27.33;;
38937;SDS011;24727;51.974;20.868;2023-10-19T05:18:37;44.35;;;23.98;;
38937;SDS011;24727;51.974;20.868;2023-10-19T05:21:04;57.35;;;28.38;;
38937;SDS011;24727;51.974;20.868;2023-10-19T05:23:31;54.08;;;27.75;;
38937;SDS011;24727;51.974;20.868;2023-10-19T05:26:06;54.65;;;26.38;;
38937;SDS011;24727;51.974;20.868;2023-10-19T05:28:32;51.30;;;26.08;;
38937;SDS011;24727;51.974;20.868;2023-10-19T05:30:59;50.38;;;24.77;;
38937;SDS011;24727;51.974;20.868;2023-10-19T05:33:27;47.83;;;26.38;;
38937;SDS011;24727;51.974;20.868;2023-10-19T05:35:54;50.35;;;27.08;;
38937;SDS011;24727;51.974;20.868;2023-10-19T05:38:20;56.08;;;27.33;;
38937;SDS011;24727;51.974;20.868;2023-10-19T05:40:47;55.92;;;28.15;;
38937;SDS011;24727;51.974;20.868;2023-10-19T05:43:15;48.15;;;26.77;;
38937;SDS011;24727;51.974;20.868;2023-10-19T05:45:43;53.10;;;28.75;;
38937;SDS011;24727;51.974;20.868;2023-10-19T05:48:10;57.83;;;29.83;;
38937;SDS011;24727;51.974;20.868;2023-10-19T05:50:37;60.95;;;30.08;;
38937;SDS011;24727;51.974;20.868;2023-10-19T05:53:04;51.10;;;26.85;;
38937;SDS011;24727;51.974;20.868;2023-10-19T05:55:31;57.83;;;28.70;;
38937;SDS011;24727;51.974;20.868;2023-10-19T05:57:58;52.08;;;28.27;;
38937;SDS011;24727;51.974;20.868;2023-10-19T06:00:25;62.22;;;33.10;;
38937;SDS011;24727;51.974;20.868;2023-10-19T06:02:52;53.33;;;28.70;;
38937;SDS011;24727;51.974;20.868;2023-10-19T06:05:20;65.43;;;33.92;;
38937;SDS011;24727;51.974;20.868;2023-10-19T06:07:47;65.22;;;33.90;;
38937;SDS011;24727;51.974;20.868;2023-10-19T06:10:21;46.92;;;25.88;;
38937;SDS011;24727;51.974;20.868;2023-10-19T06:12:51;54.58;;;29.35;;
38937;SDS011;24727;51.974;20.868;2023-10-19T06:15:18;48.63;;;24.98;;
38937;SDS011;24727;51.974;20.868;2023-10-19T06:17:47;56.20;;;27.33;;
38937;SDS011;24727;51.974;20.868;2023-10-19T06:20:15;57.08;;;30.30;;
38937;SDS011;24727;51.974;20.868;2023-10-19T06:22:52;61.45;;;28.42;;
38937;SDS011;24727;51.974;20.868;2023-10-19T06:25:23;62.95;;;31.40;;
38937;SDS011;24727;51.974;20.868;2023-10-19T06:27:50;54.70;;;29.10;;
38937;SDS011;24727;51.974;20.868;2023-10-19T06:30:17;57.42;;;29.75;;
38937;SDS011;24727;51.974;20.868;2023-10-19T06:32:45;60.75;;;31.10;;
38937;SDS011;24727;51.974;20.868;2023-10-19T06:35:13;58.63;;;31.25;;
38937;SDS011;24727;51.974;20.868;2023-10-19T06:37:39;61.13;;;29.60;;
38937;SDS011;24727;51.974;20.868;2023-10-19T06:40:06;61.05;;;32.90;;
38937;SDS011;24727;51.974;20.868;2023-10-19T06:42:32;66.68;;;33.35;;
38937;SDS011;24727;51.974;20.868;2023-10-19T06:45:00;59.03;;;30.42;;
38937;SDS011;24727;51.974;20.868;2023-10-19T06:47:26;63.78;;;30.45;;
38937;SDS011;24727;51.974;20.868;2023-10-19T06:49:54;57.65;;;31.23;;
38937;SDS011;24727;51.974;20.868;2023-10-19T06:52:21;64.07;;;33.58;;
38937;SDS011;24727;51.974;20.868;2023-10-19T06:54:48;57.38;;;31.08;;
38937;SDS011;24727;51.974;20.868;2023-10-19T06:57:14;58.50;;;29.65;;
38937;SDS011;24727;51.974;20.868;2023-10-19T06:59:40;60.53;;;31.38;;
38937;SDS011;24727;51.974;20.868;2023-10-19T07:02:05;58.13;;;29.50;;
38937;SDS011;24727;51.974;20.868;2023-10-19T07:04:33;64.05;;;33.25;;
38937;SDS011;24727;51.974;20.868;2023-10-19T07:06:59;62.90;;;34.17;;
38937;SDS011;24727;51.974;20.868;2023-10-19T07:09:27;59.80;;;32.47;;
38937;SDS011;24727;51.974;20.868;2023-10-19T07:11:53;64.28;;;33.53;;
38937;SDS011;24727;51.974;20.868;2023-10-19T07:14:20;62.90;;;32.47;;
38937;SDS011;24727;51.974;20.868;2023-10-19T07:16:48;61.58;;;32.33;;
38937;SDS011;24727;51.974;20.868;2023-10-19T07:19:17;63.42;;;31.33;;
38937;SDS011;24727;51.974;20.868;2023-10-19T07:21:44;62.15;;;33.17;;
38937;SDS011;24727;51.974;20.868;2023-10-19T07:24:14;64.15;;;34.58;;
38937;SDS011;24727;51.974;20.868;2023-10-19T07:26:41;66.07;;;34.83;;
38937;SDS011;24727;51.974;20.868;2023-10-19T07:29:21;64.00;;;32.70;;
38937;SDS011;24727;51.974;20.868;2023-10-19T07:31:47;60.30;;;33.72;;
38937;SDS011;24727;51.974;20.868;2023-10-19T07:34:13;59.45;;;32.22;;
38937;SDS011;24727;51.974;20.868;2023-10-19T07:36:41;50.70;;;27.63;;
38937;SDS011;24727;51.974;20.868;2023-10-19T07:39:10;57.03;;;30.55;;
38937;SDS011;24727;51.974;20.868;2023-10-19T07:41:44;58.97;;;31.23;;
38937;SDS011;24727;51.974;20.868;2023-10-19T07:44:11;68.43;;;30.90;;
38937;SDS011;24727;51.974;20.868;2023-10-19T07:46:37;54.58;;;29.70;;
38937;SDS011;24727;51.974;20.868;2023-10-19T07:49:04;60.95;;;30.20;;
38937;SDS011;24727;51.974;20.868;2023-10-19T07:51:32;49.35;;;28.23;;
38937;SDS011;24727;51.974;20.868;2023-10-19T07:53:59;59.42;;;32.50;;
38937;SDS011;24727;51.974;20.868;2023-10-19T07:56:25;54.45;;;32.42;;
38937;SDS011;24727;51.974;20.868;2023-10-19T07:58:51;49.08;;;28.70;;
38937;SDS011;24727;51.974;20.868;2023-10-19T08:01:17;55.40;;;29.98;;
38937;SDS011;24727;51.974;20.868;2023-10-19T08:03:44;53.28;;;28.20;;
38937;SDS011;24727;51.974;20.868;2023-10-19T08:06:10;51.63;;;29.40;;
38937;SDS011;24727;51.974;20.868;2023-10-19T08:08:37;54.58;;;29.52;;
38937;SDS011;24727;51.974;20.868;2023-10-19T08:11:03;51.47;;;27.85;;
38937;SDS011;24727;51.974;20.868;2023-10-19T08:13:30;45.53;;;25.23;;
38937;SDS011;24727;51.974;20.868;2023-10-19T08:15:59;43.35;;;24.60;;
38937;SDS011;24727;51.974;20.868;2023-10-19T08:18:25;40.95;;;25.25;;
38937;SDS011;24727;51.974;20.868;2023-10-19T08:20:52;41.90;;;24.10;;
38937;SDS011;24727;51.974;20.868;2023-10-19T08:23:19;40.50;;;24.10;;
38937;SDS011;24727;51.974;20.868;2023-10-19T08:25:50;30.20;;;17.13;;
38937;SDS011;24727;51.974;20.868;2023-10-19T08:28:16;41.35;;;22.95;;
38937;SDS011;24727;51.974;20.868;2023-10-19T08:30:42;36.78;;;22.50;;
38937;SDS011;24727;51.974;20.868;2023-10-19T08:33:10;35.60;;;20.25;;
38937;SDS011;24727;51.974;20.868;2023-10-19T08:35:40;38.30;;;21.90;;
38937;SDS011;24727;51.974;20.868;2023-10-19T08:38:08;37.03;;;20.65;;
38937;SDS011;24727;51.974;20.868;2023-10-19T08:40:37;30.30;;;18.98;;
38937;SDS011;24727;51.974;20.868;2023-10-19T08:43:03;30.02;;;18.63;;
38937;SDS011;24727;51.974;20.868;2023-10-19T08:45:30;32.08;;;19.25;;
38937;SDS011;24727;51.974;20.868;2023-10-19T08:48:01;37.97;;;21.33;;
38937;SDS011;24727;51.974;20.868;2023-10-19T08:50:29;37.38;;;23.17;;
38937;SDS011;24727;51.974;20.868;2023-10-19T08:52:58;38.47;;;22.65;;
38937;SDS011;24727;51.974;20.868;2023-10-19T08:55:27;37.47;;;22.27;;
38937;SDS011;24727;51.974;20.868;2023-10-19T08:58:00;33.08;;;22.00;;
38937;SDS011;24727;51.974;20.868;2023-10-19T09:00:38;34.53;;;21.23;;
38937;SDS011;24727;51.974;20.868;2023-10-19T09:03:12;35.05;;;21.55;;
38937;SDS011;24727;51.974;20.868;2023-10-19T09:05:39;35.35;;;20.83;;
38937;SDS011;24727;51.974;20.868;2023-10-19T09:08:06;32.22;;;19.17;;
38937;SDS011;24727;51.974;20.868;2023-10-19T09:10:37;33.25;;;21.90;;
38937;SDS011;24727;51.974;20.868;2023-10-19T09:13:06;38.45;;;21.52;;
38937;SDS011;24727;51.974;20.868;2023-10-19T09:15:38;31.40;;;20.63;;
38937;SDS011;24727;51.974;20.868;2023-10-19T09:18:18;30.65;;;17.48;;
38937;SDS011;24727;51.974;20.868;2023-10-19T09:20:52;24.50;;;16.40;;
38937;SDS011;24727;51.974;20.868;2023-10-19T09:23:24;29.55;;;17.83;;
38937;SDS011;24727;51.974;20.868;2023-10-19T09:25:56;26.63;;;14.73;;
38937;SDS011;24727;51.974;20.868;2023-10-19T09:28:24;27.42;;;15.07;;
38937;SDS011;24727;51.974;20.868;2023-10-19T09:30:50;26.13;;;13.82;;
38937;SDS011;24727;51.974;20.868;2023-10-19T09:33:17;20.90;;;12.60;;
38937;SDS011;24727;51.974;20.868;2023-10-19T09:35:46;20.67;;;13.18;;
38937;SDS011;24727;51.974;20.868;2023-10-19T09:38:17;23.75;;;13.43;;
38937;SDS011;24727;51.974;20.868;2023-10-19T09:40:50;17.35;;;12.18;;
38937;SDS011;24727;51.974;20.868;2023-10-19T09:43:34;19.58;;;12.05;;
38937;SDS011;24727;51.974;20.868;2023-10-19T09:46:07;20.50;;;12.30;;
38937;SDS011;24727;51.974;20.868;2023-10-19T09:48:41;21.85;;;12.98;;
38937;SDS011;24727;51.974;20.868;2023-10-19T09:51:11;21.63;;;13.95;;
38937;SDS011;24727;51.974;20.868;2023-10-19T09:53:38;25.50;;;12.68;;
38937;SDS011;24727;51.974;20.868;2023-10-19T09:56:10;21.50;;;13.57;;
38937;SDS011;24727;51.974;20.868;2023-10-19T09:58:45;22.48;;;14.45;;
38937;SDS011;24727;51.974;20.868;2023-10-19T10:01:15;21.08;;;13.15;;
38937;SDS011;24727;51.974;20.868;2023-10-19T10:03:51;23.55;;;14.10;;
38937;SDS011;24727;51.974;20.868;2023-10-19T10:06:29;24.17;;;13.05;;
38937;SDS011;24727;51.974;20.868;2023-10-19T10:09:17;22.95;;;13.55;;
38937;SDS011;24727;51.974;20.868;2023-10-19T10:11:53;23.70;;;13.37;;
38937;SDS011;24727;51.974;20.868;2023-10-19T10:14:20;23.90;;;13.07;;
38937;SDS011;24727;51.974;20.868;2023-10-19T10:17:00;20.00;;;12.68;;
38937;SDS011;24727;51.974;20.868;2023-10-19T10:19:27;20.58;;;12.77;;
38937;SDS011;24727;51.974;20.868;2023-10-19T10:22:10;24.27;;;13.68;;
38937;SDS011;24727;51.974;20.868;2023-10-19T10:24:43;18.73;;;12.18;;
38937;SDS011;24727;51.974;20.868;2023-10-19T10:27:10;23.90;;;13.60;;
38937;SDS011;24727;51.974;20.868;2023-10-19T10:30:00;18.17;;;12.25;;
38937;SDS011;24727;51.974;20.868;2023-10-19T10:32:45;21.77;;;12.38;;
38937;SDS011;24727;51.974;20.868;2023-10-19T10:38:06;16.15;;;11.82;;
38937;SDS011;24727;51.974;20.868;2023-10-19T10:40:47;17.98;;;11.10;;
38937;SDS011;24727;51.974;20.868;2023-10-19T10:43:14;17.50;;;10.85;;
38937;SDS011;24727;51.974;20.868;2023-10-19T10:45:42;17.77;;;11.90;;
38937;SDS011;24727;51.974;20.868;2023-10-19T10:48:12;18.33;;;11.32;;
38937;SDS011;24727;51.974;20.868;2023-10-19T10:50:39;14.00;;;9.38;;
38937;SDS011;24727;51.974;20.868;2023-10-19T10:53:06;16.27;;;10.98;;
38937;SDS011;24727;51.974;20.868;2023-10-19T10:55:40;17.05;;;11.10;;
38937;SDS011;24727;51.974;20.868;2023-10-19T10:58:06;17.95;;;11.15;;
38937;SDS011;24727;51.974;20.868;2023-10-19T11:00:41;16.50;;;10.68;;
38937;SDS011;24727;51.974;20.868;2023-10-19T11:03:08;14.60;;;8.90;;
38937;SDS011;24727;51.974;20.868;2023-10-19T11:05:38;18.55;;;11.10;;
38937;SDS011;24727;51.974;20.868;2023-10-19T11:08:08;19.30;;;11.18;;
38937;SDS011;24727;51.974;20.868;2023-10-19T11:10:36;19.45;;;10.93;;
38937;SDS011;24727;51.974;20.868;2023-10-19T11:13:06;17.67;;;10.15;;
38937;SDS011;24727;51.974;20.868;2023-10-19T11:15:34;16.40;;;10.85;;
38937;SDS011;24727;51.974;20.868;2023-10-19T11:18:03;15.45;;;10.43;;
38937;SDS011;24727;51.974;20.868;2023-10-19T11:20:32;17.60;;;10.70;;
38937;SDS011;24727;51.974;20.868;2023-10-19T11:22:59;18.20;;;10.52;;
38937;SDS011;24727;51.974;20.868;2023-10-19T11:25:27;15.35;;;10.05;;
38937;SDS011;24727;51.974;20.868;2023-10-19T11:27:57;12.90;;;9.23;;
38937;SDS011;24727;51.974;20.868;2023-10-19T11:30:30;16.27;;;9.85;;
38937;SDS011;24727;51.974;20.868;2023-10-19T11:32:58;16.45;;;10.82;;
38937;SDS011;24727;51.974;20.868;2023-10-19T11:35:26;13.73;;;9.40;;
38937;SDS011;24727;51.974;20.868;2023-10-19T11:37:57;15.80;;;10.27;;
38937;SDS011;24727;51.974;20.868;2023-10-19T11:40:31;14.98;;;9.77;;
38937;SDS011;24727;51.974;20.868;2023-10-19T11:42:57;17.67;;;10.00;;
38937;SDS011;24727;51.974;20.868;2023-10-19T11:45:25;17.67;;;10.88;;
38937;SDS011;24727;51.974;20.868;2023-10-19T11:47:52;15.98;;;9.98;;
38937;SDS011;24727;51.974;20.868;2023-10-19T11:50:19;17.45;;;10.50;;
38937;SDS011;24727;51.974;20.868;2023-10-19T11:52:48;16.27;;;10.60;;
38937;SDS011;24727;51.974;20.868;2023-10-19T11:55:14;15.73;;;10.32;;
38937;SDS011;24727;51.974;20.868;2023-10-19T11:57:43;12.35;;;8.27;;
38937;SDS011;24727;51.974;20.868;2023-10-19T12:00:11;14.43;;;10.45;;
38937;SDS011;24727;51.974;20.868;2023-10-19T12:02:47;18.02;;;11.38;;
38937;SDS011;24727;51.974;20.868;2023-10-19T12:05:14;15.18;;;9.57;;
38937;SDS011;24727;51.974;20.868;2023-10-19T12:07:42;20.95;;;10.45;;
38937;SDS011;24727;51.974;20.868;2023-10-19T12:10:10;16.20;;;10.68;;
38937;SDS011;24727;51.974;20.868;2023-10-19T12:12:39;77.18;;;47.33;;
38937;SDS011;24727;51.974;20.868;2023-10-19T12:15:07;25.05;;;15.63;;
38937;SDS011;24727;51.974;20.868;2023-10-19T12:17:35;15.57;;;9.80;;
38937;SDS011;24727;51.974;20.868;2023-10-19T12:20:01;18.98;;;11.38;;
38937;SDS011;24727;51.974;20.868;2023-10-19T12:22:27;17.83;;;10.23;;
38937;SDS011;24727;51.974;20.868;2023-10-19T12:24:57;16.95;;;9.73;;
38937;SDS011;24727;51.974;20.868;2023-10-19T12:27:24;17.30;;;10.50;;
38937;SDS011;24727;51.974;20.868;2023-10-19T12:29:51;16.55;;;11.27;;
38937;SDS011;24727;51.974;20.868;2023-10-19T12:32:21;16.67;;;10.43;;
38937;SDS011;24727;51.974;20.868;2023-10-19T12:34:47;17.15;;;10.35;;
38937;SDS011;24727;51.974;20.868;2023-10-19T12:37:21;14.93;;;10.60;;
38937;SDS011;24727;51.974;20.868;2023-10-19T12:39:47;17.67;;;10.13;;
38937;SDS011;24727;51.974;20.868;2023-10-19T12:42:15;16.25;;;10.75;;
38937;SDS011;24727;51.974;20.868;2023-10-19T12:44:41;15.98;;;10.50;;
38937;SDS011;24727;51.974;20.868;2023-10-19T12:47:09;19.77;;;12.02;;
38937;SDS011;24727;51.974;20.868;2023-10-19T12:49:39;19.85;;;12.23;;
38937;SDS011;24727;51.974;20.868;2023-10-19T12:52:08;18.98;;;12.60;;
38937;SDS011;24727;51.974;20.868;2023-10-19T12:54:35;19.33;;;10.85;;
38937;SDS011;24727;51.974;20.868;2023-10-19T12:57:02;17.48;;;11.75;;
38937;SDS011;24727;51.974;20.868;2023-10-19T12:59:32;17.92;;;11.57;;
38937;SDS011;24727;51.974;20.868;2023-10-19T13:01:59;20.85;;;12.77;;
38937;SDS011;24727;51.974;20.868;2023-10-19T13:04:28;28.75;;;12.93;;
38937;SDS011;24727;51.974;20.868;2023-10-19T13:06:56;19.23;;;11.75;;
38937;SDS011;24727;51.974;20.868;2023-10-19T13:09:26;18.02;;;12.13;;
38937;SDS011;24727;51.974;20.868;2023-10-19T13:11:59;22.65;;;12.07;;
38937;SDS011;24727;51.974;20.868;2023-10-19T13:14:26;18.48;;;11.18;;
38937;SDS011;24727;51.974;20.868;2023-10-19T13:16:54;16.90;;;10.38;;
38937;SDS011;24727;51.974;20.868;2023-10-19T13:19:21;17.38;;;11.70;;
38937;SDS011;24727;51.974;20.868;2023-10-19T13:21:51;19.88;;;11.73;;
38937;SDS011;24727;51.974;20.868;2023-10-19T13:24:18;19.35;;;11.75;;
38937;SDS011;24727;51.974;20.868;2023-10-19T13:26:48;19.23;;;12.25;;
38937;SDS011;24727;51.974;20.868;2023-10-19T13:29:14;22.15;;;12.75;;
38937;SDS011;24727;51.974;20.868;2023-10-19T13:31:40;21.20;;;11.93;;
38937;SDS011;24727;51.974;20.868;2023-10-19T13:34:15;19.35;;;12.63;;
38937;SDS011;24727;51.974;20.868;2023-10-19T13:36:41;21.90;;;13.52;;
38937;SDS011;24727;51.974;20.868;2023-10-19T13:39:09;23.48;;;14.63;;
38937;SDS011;24727;51.974;20.868;2023-10-19T13:44:09;58.75;;;33.08;;
38937;SDS011;24727;51.974;20.868;2023-10-19T13:46:37;29.13;;;17.80;;
38937;SDS011;24727;51.974;20.868;2023-10-19T13:49:03;39.38;;;24.85;;
38937;SDS011;24727;51.974;20.868;2023-10-19T13:51:31;23.77;;;15.07;;
38937;SDS011;24727;51.974;20.868;2023-10-19T13:53:58;40.45;;;16.17;;
38937;SDS011;24727;51.974;20.868;2023-10-19T13:56:25;28.33;;;16.42;;
38937;SDS011;24727;51.974;20.868;2023-10-19T13:58:51;24.73;;;17.05;;
38937;SDS011;24727;51.974;20.868;2023-10-19T14:01:17;23.00;;;13.27;;
38937;SDS011;24727;51.974;20.868;2023-10-19T14:03:44;20.52;;;14.30;;
38937;SDS011;24727;51.974;20.868;2023-10-19T14:06:13;18.38;;;12.63;;
38937;SDS011;24727;51.974;20.868;2023-10-19T14:08:40;17.55;;;10.90;;
38937;SDS011;24727;51.974;20.868;2023-10-19T14:11:06;20.77;;;15.65;;
38937;SDS011;24727;51.974;20.868;2023-10-19T14:13:33;20.13;;;12.43;;
38937;SDS011;24727;51.974;20.868;2023-10-19T14:16:04;23.27;;;14.13;;
38937;SDS011;24727;51.974;20.868;2023-10-19T14:18:31;19.70;;;13.52;;
38937;SDS011;24727;51.974;20.868;2023-10-19T14:20:58;20.20;;;13.05;;
38937;SDS011;24727;51.974;20.868;2023-10-19T14:23:26;19.65;;;11.30;;
38937;SDS011;24727;51.974;20.868;2023-10-19T14:25:53;16.05;;;10.63;;
38937;SDS011;24727;51.974;20.868;2023-10-19T14:28:19;20.98;;;12.80;;
38937;SDS011;24727;51.974;20.868;2023-10-19T14:30:51;18.98;;;12.73;;
38937;SDS011;24727;51.974;20.868;2023-10-19T14:33:17;23.55;;;12.68;;